»·PEaware :: N7274H KSBA-KBUR

N7274H :: KSBA-KBUR

FLIGHT INFORMATION

Flight Status: Arrived
Operator: Privately registered:
United States
More flights under this callsign
Pilot: Steven Duran D. (32271)
Aircraft: CESSNA 172 SKYHAWK
(C172)
More flights by this aircraft type
Origin: KSBA Santa Barbara Mun
United States
Destination: KBUR Bob Hope-Burbank
United States
More flights between these airports :: More routes between these airports
Route: +VNY
File this flight plan on PilotEdge
Remarks:
Altitude:
(Current/Filed)
7,500ft
Speed:
(Current/Filed)
108kts
Departed: 07-Nov-20 10:25 AM
Arrived: 07-Nov-20 11:06 AM
Distance/Time
Traveled:
75nm/0:41
Distance/Time
To Go:
Arrived

Flight Plot

Page will automatically refresh every two minutes.

Flight plan parsing failed; only flown route is shown


Map Options




Map Legend


Flown Route
Filed Route
Departure Airport
Arrival Airport
Navaid (VOR, NDB)
Fix

Horizontal Profiles

Position Reports

Time Latitude Longitude Heading Altitude Ground
Speed
07-Nov-20 10:08 34.432586 -119.835077 69 13ft 0kts
07-Nov-20 10:09 34.432588 -119.835072 69 13ft 0kts
07-Nov-20 10:10 34.432589 -119.835068 69 13ft 0kts
07-Nov-20 10:11 34.432591 -119.835063 69 13ft 0kts
07-Nov-20 10:12 34.432592 -119.835058 69 13ft 0kts
07-Nov-20 10:13 34.432594 -119.835053 69 13ft 0kts
07-Nov-20 10:14 34.432595 -119.835049 69 13ft 0kts
07-Nov-20 10:15 34.432596 -119.835044 69 13ft 0kts
07-Nov-20 10:16 34.432598 -119.835039 69 13ft 0kts
07-Nov-20 10:17 34.432599 -119.835035 69 13ft 0kts
07-Nov-20 10:18 34.432601 -119.835030 69 13ft 0kts
07-Nov-20 10:19 34.432602 -119.835025 69 13ft 0kts
07-Nov-20 10:20 34.432604 -119.835020 69 13ft 0kts
07-Nov-20 10:21 34.431906 -119.835370 203 13ft 9kts
07-Nov-20 10:22 34.428765 -119.835284 177 13ft 0kts
07-Nov-20 10:23 34.428761 -119.835284 177 13ft 0kts
07-Nov-20 10:24 34.427693 -119.847122 272 433ft 64kts
07-Nov-20 10:25 34.426355 -119.868184 269 1456ft 71kts
07-Nov-20 10:26 34.428020 -119.893045 313 1974ft 73kts
07-Nov-20 10:27 34.439263 -119.870715 95 2931ft 114kts
07-Nov-20 10:28 34.432843 -119.832193 99 3633ft 130kts
07-Nov-20 10:29 34.421175 -119.786783 107 3484ft 135kts
07-Nov-20 10:30 34.411351 -119.744634 103 3519ft 130kts
07-Nov-20 10:31 34.400542 -119.701608 103 3552ft 136kts
07-Nov-20 10:32 34.389706 -119.657229 99 3499ft 135kts
07-Nov-20 10:33 34.384044 -119.612899 69 3539ft 126kts
07-Nov-20 10:34 34.386119 -119.568875 93 3513ft 132kts
07-Nov-20 10:35 34.380145 -119.525533 95 3522ft 130kts
07-Nov-20 10:36 34.373796 -119.482378 96 3518ft 129kts
07-Nov-20 10:37 34.367474 -119.439602 96 3512ft 129kts
07-Nov-20 10:38 34.354983 -119.399076 95 3518ft 133kts
07-Nov-20 10:39 34.342628 -119.355922 109 3517ft 132kts
07-Nov-20 10:40 34.345812 -119.315620 77 3514ft 126kts
07-Nov-20 10:41 34.342544 -119.272210 97 3521ft 132kts
07-Nov-20 10:42 34.335996 -119.227916 97 3517ft 132kts
07-Nov-20 10:43 34.329510 -119.184577 97 3515ft 129kts
07-Nov-20 10:44 34.323079 -119.141738 98 3518ft 130kts
07-Nov-20 10:45 34.316464 -119.097788 98 3519ft 134kts
07-Nov-20 10:46 34.309598 -119.052330 98 3511ft 131kts
07-Nov-20 10:47 34.303196 -119.010046 98 3509ft 127kts
07-Nov-20 10:48 34.296715 -118.967310 99 3518ft 131kts
07-Nov-20 10:49 34.289892 -118.922335 99 3523ft 130kts
07-Nov-20 10:50 34.283447 -118.880210 100 3543ft 122kts
07-Nov-20 10:51 34.276869 -118.838085 102 3448ft 127kts
07-Nov-20 10:52 34.270551 -118.796890 106 3507ft 117kts
07-Nov-20 10:53 34.260779 -118.758717 112 3051ft 114kts
07-Nov-20 10:54 34.250357 -118.722261 113 3012ft 110kts
07-Nov-20 10:55 34.242562 -118.685040 93 3061ft 122kts
07-Nov-20 10:56 34.239483 -118.646769 83 3035ft 117kts
07-Nov-20 10:57 34.239718 -118.608388 95 3115ft 115kts
07-Nov-20 10:58 34.233963 -118.568244 102 2974ft 125kts
07-Nov-20 10:59 34.226615 -118.528758 101 3036ft 118kts
07-Nov-20 11:00 34.220316 -118.489794 106 3010ft 116kts
07-Nov-20 11:01 34.210896 -118.452484 111 2926ft 113kts
07-Nov-20 11:02 34.201015 -118.419900 112 2204ft 98kts
07-Nov-20 11:03 34.198202 -118.391098 90 1317ft 76kts
07-Nov-20 11:04 34.197897 -118.366373 93 733ft 58kts
07-Nov-20 11:05 34.197127 -118.360311 178 724ft 0kts
07-Nov-20 11:06 34.197124 -118.360311 178 724ft 0kts
07-Nov-20 11:07 34.195915 -118.360309 179 724ft 0kts

Navigation Log

Ident Type
Flight plan parsing failed, navigation log unavailable